Time;durP1;ratioP1;P1;durP2;ratioP2;P2;SDS_P1;SDS_P2;PMS_P1;PMS_P2;Temp;Humidity;BMP_temperature;BMP_pressure;BME280_temperature;BME280_humidity;BME280_pressure;Samples;Min_cycle;Max_cycle;Signal;HPM_P1;HPM_P2
2024/01/07 00:00:57;;;;;;;3.50;1.52;;;;;;;;;;5052216;28;20032;-68
2024/01/07 00:03:23;;;;;;;3.67;1.60;;;;;;;;;;5053251;28;20074;-68
2024/01/07 00:05:48;;;;;;;3.97;2.15;;;;;;;;;;5053040;28;20445;-69
2024/01/07 00:08:14;;;;;;;4.43;2.55;;;;;;;;;;5053111;28;20029;-68
2024/01/07 00:10:39;;;;;;;4.75;2.45;;;;;;;;;;5051496;28;20048;-68
2024/01/07 00:13:04;;;;;;;5.13;2.22;;;;;;;;;;5052943;28;20025;-68
2024/01/07 00:15:31;;;;;;;7.68;2.97;;;;;;;;;;5052942;28;20024;-68
2024/01/07 00:17:56;;;;;;;7.63;3.63;;;;;;;;;;5051431;28;20355;-68
2024/01/07 00:20:22;;;;;;;6.90;2.47;;;;;;;;;;5050023;28;20059;-68
2024/01/07 00:22:47;;;;;;;5.07;2.13;;;;;;;;;;5052712;28;20036;-67
2024/01/07 00:25:13;;;;;;;5.45;2.03;;;;;;;;;;5052554;28;20027;-68
2024/01/07 00:27:38;;;;;;;3.83;2.20;;;;;;;;;;5052667;28;20029;-68
2024/01/07 00:30:04;;;;;;;3.67;1.98;;;;;;;;;;5052711;28;20017;-67
2024/01/07 00:32:29;;;;;;;3.28;2.17;;;;;;;;;;5052437;28;20052;-67
2024/01/07 00:34:55;;;;;;;4.70;2.53;;;;;;;;;;5052629;28;20021;-67
2024/01/07 00:37:20;;;;;;;4.82;2.75;;;;;;;;;;5052421;28;20037;-67
2024/01/07 00:39:46;;;;;;;4.93;2.53;;;;;;;;;;5051533;28;20025;-67
2024/01/07 00:42:11;;;;;;;6.88;2.70;;;;;;;;;;5052417;28;20025;-67
2024/01/07 00:44:37;;;;;;;5.82;2.55;;;;;;;;;;5052305;28;20398;-67
2024/01/07 00:47:03;;;;;;;3.78;2.10;;;;;;;;;;5049569;28;20067;-68
2024/01/07 00:49:28;;;;;;;4.00;2.10;;;;;;;;;;5052390;28;20395;-68
2024/01/07 00:51:54;;;;;;;6.30;2.25;;;;;;;;;;5065371;28;20028;-68
2024/01/07 00:54:19;;;;;;;2.55;1.65;;;;;;;;;;5072691;28;20484;-68
2024/01/07 00:56:45;;;;;;;6.25;2.35;;;;;;;;;;5072662;28;20082;-67
2024/01/07 00:59:12;;;;;;;6.35;1.77;;;;;;;;;;5072771;28;20127;-67
2024/01/07 01:01:37;;;;;;;4.75;2.13;;;;;;;;;;5072706;28;20028;-67
2024/01/07 01:04:03;;;;;;;2.95;1.77;;;;;;;;;;5072823;28;20028;-68
2024/01/07 01:06:28;;;;;;;4.82;2.10;;;;;;;;;;5072614;28;20029;-67
2024/01/07 01:08:54;;;;;;;6.47;2.60;;;;;;;;;;5072521;28;20086;-67
2024/01/07 01:11:19;;;;;;;3.40;2.20;;;;;;;;;;5072710;28;20016;-67
2024/01/07 01:13:45;;;;;;;3.33;2.03;;;;;;;;;;5072477;28;20021;-68
2024/01/07 01:16:10;;;;;;;3.92;2.22;;;;;;;;;;5072695;28;20066;-67
2024/01/07 01:18:35;;;;;;;12.43;3.80;;;;;;;;;;5072550;28;20123;-67
2024/01/07 01:21:01;;;;;;;4.30;2.25;;;;;;;;;;5072505;28;20345;-68
2024/01/07 01:23:26;;;;;;;4.63;2.22;;;;;;;;;;5072349;28;20024;-67
2024/01/07 01:25:51;;;;;;;6.13;2.53;;;;;;;;;;5072712;28;20035;-68
2024/01/07 01:28:17;;;;;;;5.13;2.42;;;;;;;;;;5072508;28;20020;-68
2024/01/07 01:30:42;;;;;;;4.65;1.80;;;;;;;;;;5072394;28;20035;-68
2024/01/07 01:33:08;;;;;;;3.33;1.63;;;;;;;;;;5069220;28;20466;-68
2024/01/07 01:35:33;;;;;;;7.25;3.15;;;;;;;;;;5052418;28;20029;-67
2024/01/07 01:37:58;;;;;;;4.38;1.60;;;;;;;;;;5052094;28;20471;-68
2024/01/07 01:40:24;;;;;;;2.90;1.80;;;;;;;;;;5052412;28;20086;-68
2024/01/07 01:42:49;;;;;;;5.90;2.17;;;;;;;;;;5052292;28;20021;-68
2024/01/07 01:45:15;;;;;;;3.25;1.90;;;;;;;;;;5052198;28;20119;-68
2024/01/07 01:47:41;;;;;;;5.05;1.98;;;;;;;;;;5052174;28;20029;-68
2024/01/07 01:50:07;;;;;;;3.72;1.58;;;;;;;;;;5052977;28;20021;-67
2024/01/07 01:52:33;;;;;;;5.05;1.98;;;;;;;;;;5073903;28;20028;-68
2024/01/07 01:54:59;;;;;;;5.03;2.00;;;;;;;;;;5075975;28;20078;-67
2024/01/07 01:57:33;;;;;;;3.70;1.92;;;;;;;;;;5076188;28;20032;-68
2024/01/07 02:00:03;;;;;;;3.15;1.70;;;;;;;;;;5076121;28;20021;-68
2024/01/07 02:02:31;;;;;;;4.18;1.58;;;;;;;;;;5075911;28;20039;-68
2024/01/07 02:04:57;;;;;;;2.58;1.33;;;;;;;;;;5076124;28;20036;-68
2024/01/07 02:07:24;;;;;;;4.57;1.63;;;;;;;;;;5075668;28;20031;-68
2024/01/07 02:09:50;;;;;;;3.72;1.77;;;;;;;;;;5075902;28;20390;-68
2024/01/07 02:12:15;;;;;;;2.60;1.90;;;;;;;;;;5075832;28;20021;-68
2024/01/07 02:14:40;;;;;;;3.05;1.73;;;;;;;;;;5074567;28;20461;-69
2024/01/07 02:17:06;;;;;;;6.88;2.75;;;;;;;;;;5075601;28;20028;-68
2024/01/07 02:19:32;;;;;;;8.63;3.28;;;;;;;;;;5075664;28;20101;-68
2024/01/07 02:21:57;;;;;;;4.53;1.98;;;;;;;;;;5075429;28;20046;-69
2024/01/07 02:24:23;;;;;;;3.38;1.80;;;;;;;;;;5075578;28;20024;-69
2024/01/07 02:26:48;;;;;;;3.80;1.88;;;;;;;;;;5075587;28;20028;-68
2024/01/07 02:29:13;;;;;;;2.13;1.42;;;;;;;;;;5075521;28;20074;-68
2024/01/07 02:31:39;;;;;;;2.50;1.60;;;;;;;;;;5075417;28;20070;-68
2024/01/07 02:34:04;;;;;;;6.10;1.88;;;;;;;;;;5064647;28;20017;-68
2024/01/07 02:36:30;;;;;;;2.90;1.65;;;;;;;;;;5055231;28;20094;-69
2024/01/07 02:38:55;;;;;;;2.92;1.90;;;;;;;;;;5055409;28;20108;-68
2024/01/07 02:41:25;;;;;;;3.08;1.55;;;;;;;;;;5055291;28;20469;-68
2024/01/07 02:43:51;;;;;;;4.15;1.92;;;;;;;;;;5055134;28;20037;-68
2024/01/07 02:46:16;;;;;;;4.07;1.55;;;;;;;;;;5054960;28;20029;-68
2024/01/07 02:48:41;;;;;;;2.70;1.52;;;;;;;;;;5055271;28;20089;-68
2024/01/07 02:51:08;;;;;;;3.08;1.60;;;;;;;;;;5059533;28;20032;-68
2024/01/07 02:53:34;;;;;;;2.15;1.48;;;;;;;;;;5075108;28;20038;-68
2024/01/07 02:55:59;;;;;;;3.00;1.45;;;;;;;;;;5074888;28;20127;-68
2024/01/07 02:58:25;;;;;;;3.97;1.70;;;;;;;;;;5074987;28;20028;-67
2024/01/07 03:00:50;;;;;;;4.13;1.40;;;;;;;;;;5075012;28;20107;-68
2024/01/07 03:03:16;;;;;;;1.65;1.20;;;;;;;;;;5074166;28;20037;-68
2024/01/07 03:05:41;;;;;;;2.50;1.60;;;;;;;;;;5074696;28;20025;-68
2024/01/07 03:08:07;;;;;;;3.30;1.80;;;;;;;;;;5073553;28;20078;-68
2024/01/07 03:10:33;;;;;;;3.33;1.73;;;;;;;;;;5074754;28;20048;-68
2024/01/07 03:12:58;;;;;;;2.20;1.27;;;;;;;;;;5074793;28;20063;-68
2024/01/07 03:15:24;;;;;;;3.63;1.50;;;;;;;;;;5074777;28;20036;-68
2024/01/07 03:17:49;;;;;;;2.13;1.50;;;;;;;;;;5074525;28;20466;-68
2024/01/07 03:20:14;;;;;;;4.07;1.42;;;;;;;;;;5074325;28;20028;-68
2024/01/07 03:22:40;;;;;;;2.38;1.40;;;;;;;;;;5074519;28;20386;-68
2024/01/07 03:25:06;;;;;;;1.48;1.15;;;;;;;;;;5074304;28;20400;-68
2024/01/07 03:27:32;;;;;;;2.17;1.40;;;;;;;;;;5074330;28;20028;-68
2024/01/07 03:29:57;;;;;;;2.83;1.40;;;;;;;;;;5074524;28;20024;-68
2024/01/07 03:32:22;;;;;;;4.00;1.50;;;;;;;;;;5074441;28;20339;-68
2024/01/07 03:34:48;;;;;;;2.15;1.50;;;;;;;;;;5057188;28;20520;-67
2024/01/07 03:37:13;;;;;;;3.78;1.70;;;;;;;;;;5054377;28;20068;-68
2024/01/07 03:39:38;;;;;;;1.85;1.27;;;;;;;;;;5054175;28;20031;-69
2024/01/07 03:42:11;;;;;;;2.92;1.65;;;;;;;;;;5054163;28;20111;-68
2024/01/07 03:44:36;;;;;;;2.47;1.60;;;;;;;;;;5054104;28;20042;-68
2024/01/07 03:47:01;;;;;;;4.13;1.40;;;;;;;;;;5054195;28;20121;-68
2024/01/07 03:49:27;;;;;;;2.20;1.30;;;;;;;;;;5053666;28;20029;-67
2024/01/07 03:51:52;;;;;;;4.38;1.52;;;;;;;;;;5066213;28;20017;-67
2024/01/07 03:54:18;;;;;;;2.17;1.42;;;;;;;;;;5073604;28;20429;-67
2024/01/07 03:56:43;;;;;;;3.55;1.40;;;;;;;;;;5073742;28;20127;-67
2024/01/07 03:59:08;;;;;;;5.10;1.88;;;;;;;;;;5073795;28;20070;-67
2024/01/07 04:01:34;;;;;;;2.08;1.42;;;;;;;;;;5073805;28;20466;-67
2024/01/07 04:03:59;;;;;;;2.75;1.50;;;;;;;;;;5073627;28;20107;-67
2024/01/07 04:06:25;;;;;;;1.30;1.00;;;;;;;;;;5073618;28;20029;-67
2024/01/07 04:08:50;;;;;;;2.97;1.70;;;;;;;;;;5073584;28;20031;-67
2024/01/07 04:11:15;;;;;;;5.38;1.98;;;;;;;;;;5073593;28;20028;-68
2024/01/07 04:13:41;;;;;;;2.20;1.50;;;;;;;;;;5072564;28;20056;-69
2024/01/07 04:16:23;;;;;;;2.85;1.55;;;;;;;;;;5073475;28;20027;-68
2024/01/07 04:18:49;;;;;;;2.63;1.67;;;;;;;;;;5073373;28;20351;-68
2024/01/07 04:21:14;;;;;;;4.20;2.30;;;;;;;;;;5073348;28;20032;-69
2024/01/07 04:23:43;;;;;;;3.53;1.98;;;;;;;;;;5073154;28;20021;-68
2024/01/07 04:26:09;;;;;;;4.20;1.80;;;;;;;;;;5073352;28;20082;-68
2024/01/07 04:28:35;;;;;;;4.53;2.13;;;;;;;;;;5073311;28;20022;-68
2024/01/07 04:31:00;;;;;;;4.28;2.05;;;;;;;;;;5072855;28;20028;-67
2024/01/07 04:33:26;;;;;;;3.55;1.70;;;;;;;;;;5066612;28;20082;-68
2024/01/07 04:35:51;;;;;;;4.28;1.83;;;;;;;;;;5053230;28;20025;-68
2024/01/07 04:38:16;;;;;;;2.75;1.58;;;;;;;;;;5052812;28;20036;-68
2024/01/07 04:40:42;;;;;;;3.97;1.65;;;;;;;;;;5053050;28;20029;-68
2024/01/07 04:43:07;;;;;;;2.17;1.60;;;;;;;;;;5053142;28;20028;-68
2024/01/07 04:45:33;;;;;;;2.90;1.50;;;;;;;;;;5052480;28;20024;-68
2024/01/07 04:47:58;;;;;;;4.30;1.63;;;;;;;;;;5052807;28;20032;-68
2024/01/07 04:50:23;;;;;;;2.70;1.92;;;;;;;;;;5052752;28;20112;-68
2024/01/07 04:52:49;;;;;;;2.42;1.60;;;;;;;;;;5072927;28;20017;-68
2024/01/07 04:55:14;;;;;;;3.67;1.85;;;;;;;;;;5072799;28;20505;-68
2024/01/07 04:57:40;;;;;;;3.50;1.95;;;;;;;;;;5072927;28;20133;-68
2024/01/07 05:00:06;;;;;;;2.63;1.45;;;;;;;;;;5072535;28;20028;-67
2024/01/07 05:02:31;;;;;;;3.60;1.83;;;;;;;;;;5072878;28;20103;-68
2024/01/07 05:04:57;;;;;;;3.78;1.85;;;;;;;;;;5072789;28;20111;-67
2024/01/07 05:07:22;;;;;;;3.08;1.75;;;;;;;;;;5072730;28;20093;-68
2024/01/07 05:09:47;;;;;;;4.05;1.90;;;;;;;;;;5072504;28;20107;-68
2024/01/07 05:12:13;;;;;;;2.83;1.60;;;;;;;;;;5072628;28;20056;-68
2024/01/07 05:14:38;;;;;;;5.57;1.88;;;;;;;;;;5072507;28;20027;-68
2024/01/07 05:17:04;;;;;;;2.72;1.70;;;;;;;;;;5072547;28;20394;-68
2024/01/07 05:19:29;;;;;;;3.85;2.20;;;;;;;;;;5072246;28;20033;-68
2024/01/07 05:21:55;;;;;;;4.35;1.70;;;;;;;;;;5072624;28;20104;-68
2024/01/07 05:24:21;;;;;;;3.20;1.40;;;;;;;;;;5072650;28;20029;-68
2024/01/07 05:26:46;;;;;;;4.03;1.80;;;;;;;;;;5076314;28;20066;-68
2024/01/07 05:29:12;;;;;;;4.05;1.67;;;;;;;;;;5076486;28;20047;-67
2024/01/07 05:31:40;;;;;;;3.63;1.70;;;;;;;;;;5076534;28;20025;-68
2024/01/07 05:34:06;;;;;;;3.83;1.60;;;;;;;;;;5065689;28;20032;-68
2024/01/07 05:36:31;;;;;;;2.67;1.55;;;;;;;;;;5056696;28;20025;-68
2024/01/07 05:38:57;;;;;;;2.47;1.65;;;;;;;;;;5056174;28;20110;-68
2024/01/07 05:41:22;;;;;;;3.13;1.70;;;;;;;;;;5056472;28;20346;-68
2024/01/07 05:43:48;;;;;;;3.50;1.52;;;;;;;;;;5056003;28;20028;-68
2024/01/07 05:46:13;;;;;;;3.15;1.50;;;;;;;;;;5056253;28;20036;-67
2024/01/07 05:48:47;;;;;;;4.18;1.70;;;;;;;;;;5056112;28;20021;-68
2024/01/07 05:51:13;;;;;;;3.88;1.80;;;;;;;;;;5063013;28;20039;-68
2024/01/07 05:53:40;;;;;;;3.33;1.83;;;;;;;;;;5076341;28;20107;-68
2024/01/07 05:56:05;;;;;;;9.07;2.33;;;;;;;;;;5076015;28;20044;-67
2024/01/07 05:58:31;;;;;;;2.92;1.90;;;;;;;;;;5075760;28;20043;-68
2024/01/07 06:00:56;;;;;;;2.97;1.90;;;;;;;;;;5076117;28;20025;-68
2024/01/07 06:03:22;;;;;;;3.45;2.00;;;;;;;;;;5074808;28;20033;-68
2024/01/07 06:05:47;;;;;;;4.43;2.47;;;;;;;;;;5076030;28;21140;-69
2024/01/07 06:08:13;;;;;;;2.85;2.00;;;;;;;;;;5075830;28;20529;-68
2024/01/07 06:10:39;;;;;;;5.68;2.50;;;;;;;;;;5075762;28;20077;-68
2024/01/07 06:13:04;;;;;;;4.75;2.22;;;;;;;;;;5075528;28;20031;-68
2024/01/07 06:15:30;;;;;;;5.63;2.10;;;;;;;;;;5075858;28;20058;-68
2024/01/07 06:17:55;;;;;;;5.60;2.47;;;;;;;;;;5075386;28;20490;-68
2024/01/07 06:20:21;;;;;;;3.47;2.28;;;;;;;;;;5075629;28;20051;-68
2024/01/07 06:22:47;;;;;;;2.97;2.05;;;;;;;;;;5075730;28;20021;-68
2024/01/07 06:25:12;;;;;;;4.35;2.05;;;;;;;;;;5075858;28;20020;-69
2024/01/07 06:27:41;;;;;;;2.70;1.77;;;;;;;;;;5075332;28;20052;-68
2024/01/07 06:30:07;;;;;;;8.68;2.83;;;;;;;;;;5075584;28;20074;-69
2024/01/07 06:32:33;;;;;;;6.82;2.92;;;;;;;;;;5075403;28;20035;-68
2024/01/07 06:34:59;;;;;;;5.43;2.65;;;;;;;;;;5057021;28;20441;-68
2024/01/07 06:37:25;;;;;;;5.07;2.70;;;;;;;;;;5054154;28;20029;-68
2024/01/07 06:39:50;;;;;;;5.05;2.67;;;;;;;;;;5055194;28;20032;-68
2024/01/07 06:42:16;;;;;;;6.20;2.85;;;;;;;;;;5053763;28;20029;-68
2024/01/07 06:44:41;;;;;;;6.40;3.20;;;;;;;;;;5055153;28;20100;-68
2024/01/07 06:47:07;;;;;;;6.55;3.38;;;;;;;;;;5055088;28;20036;-68
2024/01/07 06:49:33;;;;;;;7.57;3.10;;;;;;;;;;5054816;28;20431;-68
2024/01/07 06:51:58;;;;;;;7.40;3.45;;;;;;;;;;5068273;28;20355;-69
2024/01/07 06:54:25;;;;;;;9.60;3.40;;;;;;;;;;5075188;28;20020;-68
2024/01/07 06:56:50;;;;;;;7.03;3.67;;;;;;;;;;5074434;28;20100;-68
2024/01/07 06:59:16;;;;;;;10.52;3.75;;;;;;;;;;5074814;28;20095;-68
2024/01/07 07:01:41;;;;;;;10.85;4.30;;;;;;;;;;5075047;28;20028;-67
2024/01/07 07:04:07;;;;;;;12.02;4.45;;;;;;;;;;5074903;28;20427;-67
2024/01/07 07:06:32;;;;;;;11.43;4.63;;;;;;;;;;5073674;28;20506;-68
2024/01/07 07:08:57;;;;;;;10.95;5.47;;;;;;;;;;5074519;28;20033;-68
2024/01/07 07:11:23;;;;;;;12.27;5.38;;;;;;;;;;5074511;28;20070;-68
2024/01/07 07:13:48;;;;;;;11.73;4.70;;;;;;;;;;5074602;28;20036;-68
2024/01/07 07:16:14;;;;;;;11.18;5.10;;;;;;;;;;5074679;28;20020;-68
2024/01/07 07:18:39;;;;;;;10.55;5.05;;;;;;;;;;5060572;28;20359;-67
2024/01/07 07:21:05;;;;;;;10.27;4.20;;;;;;;;;;5054244;28;20029;-67
2024/01/07 07:23:30;;;;;;;7.95;3.60;;;;;;;;;;5054640;28;20031;-68
2024/01/07 07:25:56;;;;;;;7.00;3.58;;;;;;;;;;5053711;28;20020;-68
2024/01/07 07:28:21;;;;;;;5.05;2.80;;;;;;;;;;5053831;28;20031;-67
2024/01/07 07:30:47;;;;;;;5.80;2.88;;;;;;;;;;5053842;28;20013;-67
2024/01/07 07:33:13;;;;;;;9.13;2.97;;;;;;;;;;5053585;28;20035;-67
2024/01/07 07:35:40;;;;;;;5.70;3.00;;;;;;;;;;5053606;28;20021;-68
2024/01/07 07:38:06;;;;;;;4.97;2.58;;;;;;;;;;5053530;28;20033;-68
2024/01/07 07:40:32;;;;;;;4.68;2.42;;;;;;;;;;5053430;28;20031;-68
2024/01/07 07:42:57;;;;;;;5.93;2.28;;;;;;;;;;5050879;28;20079;-67
2024/01/07 07:45:23;;;;;;;6.47;3.13;;;;;;;;;;5053476;28;20430;-67
2024/01/07 07:47:48;;;;;;;5.82;2.75;;;;;;;;;;5053073;28;20052;-68
2024/01/07 07:50:14;;;;;;;6.05;3.22;;;;;;;;;;5051583;28;20023;-68
2024/01/07 07:52:41;;;;;;;6.28;2.95;;;;;;;;;;5054635;28;20111;-68
2024/01/07 07:55:07;;;;;;;6.18;3.03;;;;;;;;;;5052931;28;20122;-68
2024/01/07 07:57:33;;;;;;;6.22;3.22;;;;;;;;;;5053190;28;20041;-67
2024/01/07 07:59:58;;;;;;;11.32;4.53;;;;;;;;;;5053224;28;20107;-68
2024/01/07 08:02:24;;;;;;;11.45;4.28;;;;;;;;;;5053117;28;20036;-68
2024/01/07 08:04:50;;;;;;;9.52;4.43;;;;;;;;;;5053193;28;20024;-68
2024/01/07 08:07:15;;;;;;;10.15;4.60;;;;;;;;;;5052844;28;20029;-67
2024/01/07 08:09:41;;;;;;;9.70;4.60;;;;;;;;;;5052833;28;20044;-67
2024/01/07 08:12:06;;;;;;;10.48;4.60;;;;;;;;;;5053088;28;20383;-67
2024/01/07 08:14:32;;;;;;;7.43;4.38;;;;;;;;;;5052810;28;20485;-68
2024/01/07 08:16:58;;;;;;;10.98;4.93;;;;;;;;;;5049969;28;20025;-67
2024/01/07 08:19:24;;;;;;;9.93;4.90;;;;;;;;;;5052708;28;20032;-67
2024/01/07 08:21:49;;;;;;;10.73;5.75;;;;;;;;;;5052836;28;20017;-67
2024/01/07 08:24:15;;;;;;;10.27;5.68;;;;;;;;;;5052850;28;20052;-67
2024/01/07 08:26:40;;;;;;;12.73;4.63;;;;;;;;;;5052573;28;20478;-67
2024/01/07 08:29:06;;;;;;;10.70;4.20;;;;;;;;;;5052710;28;20029;-68
2024/01/07 08:31:31;;;;;;;9.60;4.22;;;;;;;;;;5052708;28;20076;-68
2024/01/07 08:33:57;;;;;;;10.90;5.25;;;;;;;;;;5052581;28;20086;-67
2024/01/07 08:36:23;;;;;;;8.15;3.83;;;;;;;;;;5052554;28;20032;-67
2024/01/07 08:38:48;;;;;;;10.05;4.18;;;;;;;;;;5052151;28;20032;-68
2024/01/07 08:41:18;;;;;;;17.35;8.68;;;;;;;;;;5046765;28;20075;-67
2024/01/07 08:43:44;;;;;;;11.32;4.82;;;;;;;;;;5053196;28;20049;-67
2024/01/07 08:46:10;;;;;;;19.77;9.10;;;;;;;;;;5055324;28;20111;-67
2024/01/07 08:48:35;;;;;;;13.13;5.68;;;;;;;;;;5055798;28;20426;-67
2024/01/07 08:51:01;;;;;;;22.13;9.20;;;;;;;;;;5057786;28;20028;-67
2024/01/07 08:53:26;;;;;;;14.90;6.53;;;;;;;;;;5052367;28;20025;-67
2024/01/07 08:55:51;;;;;;;9.45;5.00;;;;;;;;;;5052431;28;20076;-67
2024/01/07 08:58:17;;;;;;;17.60;6.80;;;;;;;;;;5052506;28;20025;-67
2024/01/07 09:00:43;;;;;;;15.20;6.50;;;;;;;;;;5051814;28;20486;-67
2024/01/07 09:03:09;;;;;;;10.52;4.60;;;;;;;;;;5052283;28;20082;-67
2024/01/07 09:05:35;;;;;;;7.20;3.58;;;;;;;;;;5052505;28;20060;-65
2024/01/07 09:08:00;;;;;;;5.50;3.35;;;;;;;;;;5052055;28;20068;-65
2024/01/07 09:10:26;;;;;;;7.15;2.90;;;;;;;;;;5052348;28;20036;-65
2024/01/07 09:12:53;;;;;;;9.35;2.83;;;;;;;;;;5052400;28;20419;-65
2024/01/07 09:15:19;;;;;;;8.00;4.10;;;;;;;;;;5052294;28;20021;-66
2024/01/07 09:17:45;;;;;;;23.50;8.50;;;;;;;;;;5056246;28;20135;-66
2024/01/07 09:20:11;;;;;;;51.38;20.88;;;;;;;;;;5052085;28;20029;-66
2024/01/07 09:22:36;;;;;;;10.85;5.47;;;;;;;;;;5051824;28;20040;-67
2024/01/07 09:25:03;;;;;;;9.55;4.55;;;;;;;;;;5051932;28;20164;-66
2024/01/07 09:27:29;;;;;;;11.05;4.25;;;;;;;;;;5052201;28;20478;-66
2024/01/07 09:29:55;;;;;;;11.45;4.22;;;;;;;;;;5052060;28;20025;-66
2024/01/07 09:32:20;;;;;;;7.90;4.50;;;;;;;;;;5051973;28;20032;-66
2024/01/07 09:34:45;;;;;;;8.18;4.50;;;;;;;;;;5051644;28;20025;-67
2024/01/07 09:37:11;;;;;;;10.15;5.22;;;;;;;;;;5051305;28;20031;-66
2024/01/07 09:39:40;;;;;;;7.30;4.00;;;;;;;;;;5050632;28;20025;-67
2024/01/07 09:42:13;;;;;;;13.18;6.63;;;;;;;;;;5051900;28;20493;-67
2024/01/07 09:44:38;;;;;;;8.07;5.10;;;;;;;;;;5051776;28;20075;-66
2024/01/07 09:47:06;;;;;;;9.05;5.47;;;;;;;;;;5051549;28;20032;-67
2024/01/07 09:49:32;;;;;;;11.02;5.57;;;;;;;;;;5051702;28;20045;-66
2024/01/07 09:52:03;;;;;;;9.75;4.95;;;;;;;;;;5051438;28;20356;-66
2024/01/07 09:54:29;;;;;;;10.75;4.22;;;;;;;;;;5051919;28;20025;-66
2024/01/07 09:57:01;;;;;;;9.38;4.75;;;;;;;;;;5051528;28;20060;-66
2024/01/07 09:59:30;;;;;;;9.32;4.10;;;;;;;;;;5051601;28;20029;-67
2024/01/07 10:01:57;;;;;;;6.72;3.58;;;;;;;;;;5051925;28;20386;-66
2024/01/07 10:04:23;;;;;;;9.98;4.03;;;;;;;;;;5051465;28;20040;-70
2024/01/07 10:06:49;;;;;;;6.80;2.95;;;;;;;;;;5051761;28;20043;-65
2024/01/07 10:09:18;;;;;;;13.75;4.70;;;;;;;;;;5051758;28;20146;-65
2024/01/07 10:11:44;;;;;;;7.30;3.92;;;;;;;;;;5053538;28;20393;-66
2024/01/07 10:14:10;;;;;;;4.13;2.55;;;;;;;;;;5055499;28;20029;-67
2024/01/07 10:16:35;;;;;;;7.80;5.13;;;;;;;;;;5055432;28;20025;-66
2024/01/07 10:19:01;;;;;;;5.53;3.47;;;;;;;;;;5054950;28;20033;-66
2024/01/07 10:21:26;;;;;;;5.75;3.08;;;;;;;;;;5037596;28;20025;-66
2024/01/07 10:24:08;;;;;;;6.40;4.22;;;;;;;;;;5034451;28;20030;-67
2024/01/07 10:26:33;;;;;;;11.45;3.35;;;;;;;;;;5033917;28;20033;-67
2024/01/07 10:28:58;;;;;;;5.28;3.60;;;;;;;;;;5033652;28;20029;-67
2024/01/07 10:31:24;;;;;;;8.82;3.55;;;;;;;;;;5034225;28;20433;-67
2024/01/07 10:33:49;;;;;;;17.95;4.82;;;;;;;;;;5041266;28;20029;-67
2024/01/07 10:36:16;;;;;;;13.98;4.18;;;;;;;;;;5054098;28;20370;-66
2024/01/07 10:38:44;;;;;;;10.23;3.95;;;;;;;;;;5053565;28;20032;-67
2024/01/07 10:41:11;;;;;;;13.40;5.03;;;;;;;;;;5054350;28;20443;-67
2024/01/07 10:43:38;;;;;;;10.93;4.30;;;;;;;;;;5053988;28;20025;-67
2024/01/07 10:46:04;;;;;;;11.30;3.90;;;;;;;;;;5053534;28;20082;-67
2024/01/07 10:48:34;;;;;;;8.07;3.45;;;;;;;;;;5052350;28;20033;-67
2024/01/07 10:51:00;;;;;;;6.53;3.40;;;;;;;;;;5053817;28;20347;-67
2024/01/07 10:53:28;;;;;;;10.38;5.22;;;;;;;;;;5053966;28;20128;-67
2024/01/07 10:56:03;;;;;;;10.20;4.68;;;;;;;;;;5054347;28;20045;-67
2024/01/07 10:58:32;;;;;;;15.13;5.47;;;;;;;;;;5054511;28;20064;-67
2024/01/07 11:01:02;;;;;;;10.85;4.38;;;;;;;;;;5054385;28;20104;-67
2024/01/07 11:03:35;;;;;;;18.95;6.45;;;;;;;;;;5054460;28;20430;-67
2024/01/07 11:06:16;;;;;;;13.20;5.22;;;;;;;;;;5054672;28;20022;-68
2024/01/07 11:08:50;;;;;;;56.72;14.70;;;;;;;;;;5054421;28;20110;-67
2024/01/07 11:11:17;;;;;;;39.38;10.32;;;;;;;;;;5054073;28;20033;-67
2024/01/07 11:13:43;;;;;;;16.58;5.15;;;;;;;;;;5054327;28;20082;-67
2024/01/07 11:16:09;;;;;;;9.90;3.83;;;;;;;;;;5054298;28;20032;-67
2024/01/07 11:18:45;;;;;;;8.95;3.55;;;;;;;;;;5053813;28;20198;-69
2024/01/07 11:21:20;;;;;;;6.60;3.67;;;;;;;;;;5054051;28;20025;-67
2024/01/07 11:23:46;;;;;;;13.43;4.35;;;;;;;;;;5053561;28;20028;-67
2024/01/07 11:26:12;;;;;;;14.02;4.90;;;;;;;;;;5054233;28;20032;-67
2024/01/07 11:28:54;;;;;;;9.40;4.18;;;;;;;;;;5054050;28;20409;-67
2024/01/07 11:31:21;;;;;;;5.25;2.42;;;;;;;;;;5054022;28;20478;-68
2024/01/07 11:33:50;;;;;;;4.38;2.80;;;;;;;;;;5053682;28;20033;-67
2024/01/07 11:36:17;;;;;;;9.10;3.67;;;;;;;;;;5053700;28;20444;-68
2024/01/07 11:38:50;;;;;;;8.50;3.22;;;;;;;;;;5053159;28;20359;-67
2024/01/07 11:41:17;;;;;;;6.10;3.30;;;;;;;;;;5053738;28;20029;-68
2024/01/07 11:44:02;;;;;;;7.30;3.90;;;;;;;;;;5057052;28;20171;-66
2024/01/07 11:46:28;;;;;;;12.27;5.70;;;;;;;;;;5056189;28;20032;-68
2024/01/07 11:49:01;;;;;;;9.57;4.35;;;;;;;;;;5055396;28;20083;-67
2024/01/07 11:51:31;;;;;;;10.10;5.10;;;;;;;;;;5053768;28;20069;-67
2024/01/07 11:53:58;;;;;;;6.32;3.47;;;;;;;;;;5055475;28;20025;-68
2024/01/07 11:56:28;;;;;;;7.55;3.55;;;;;;;;;;5065007;28;20049;-67
2024/01/07 11:58:54;;;;;;;6.95;3.70;;;;;;;;;;5056702;28;20560;-68
2024/01/07 12:01:19;;;;;;;17.08;6.90;;;;;;;;;;5069524;28;20033;-68
2024/01/07 12:03:45;;;;;;;25.70;9.88;;;;;;;;;;5054359;28;20355;-68
2024/01/07 12:06:14;;;;;;;24.55;8.70;;;;;;;;;;5055789;28;20037;-68
2024/01/07 12:08:42;;;;;;;22.00;8.68;;;;;;;;;;5069295;28;20521;-68
2024/01/07 12:11:08;;;;;;;12.43;5.20;;;;;;;;;;5054696;28;20052;-67
2024/01/07 12:13:34;;;;;;;6.82;3.58;;;;;;;;;;5053266;28;20051;-67
2024/01/07 12:16:00;;;;;;;9.32;4.20;;;;;;;;;;5054196;28;20078;-67
2024/01/07 12:18:26;;;;;;;6.07;3.20;;;;;;;;;;5053488;28;20389;-67
2024/01/07 12:20:58;;;;;;;8.25;3.97;;;;;;;;;;5053394;28;20021;-67
2024/01/07 12:23:25;;;;;;;9.40;4.68;;;;;;;;;;5053179;28;20390;-67
2024/01/07 12:25:50;;;;;;;11.55;4.72;;;;;;;;;;5052829;28;20055;-67
2024/01/07 12:28:20;;;;;;;11.38;4.72;;;;;;;;;;5053154;28;20380;-67
2024/01/07 12:30:47;;;;;;;14.97;5.03;;;;;;;;;;5052676;28;20021;-67
2024/01/07 12:33:18;;;;;;;7.63;4.10;;;;;;;;;;5052475;28;20095;-67
2024/01/07 12:35:45;;;;;;;14.77;5.80;;;;;;;;;;5050598;28;20386;-67
2024/01/07 12:38:10;;;;;;;12.93;6.03;;;;;;;;;;5052735;28;20033;-66
2024/01/07 12:40:36;;;;;;;9.50;4.47;;;;;;;;;;5052353;28;20209;-67
2024/01/07 12:43:02;;;;;;;11.55;4.88;;;;;;;;;;5052140;28;20040;-67
2024/01/07 12:45:27;;;;;;;13.18;5.70;;;;;;;;;;5052639;28;20390;-68
2024/01/07 12:47:55;;;;;;;18.48;7.20;;;;;;;;;;5052434;28;20048;-68
2024/01/07 12:50:23;;;;;;;14.68;6.15;;;;;;;;;;5052818;28;20040;-68
2024/01/07 12:52:48;;;;;;;20.63;6.95;;;;;;;;;;5052561;28;20048;-68
2024/01/07 12:55:14;;;;;;;16.33;6.63;;;;;;;;;;5052479;28;20477;-68
2024/01/07 12:57:39;;;;;;;17.63;5.15;;;;;;;;;;5052795;28;20478;-68
2024/01/07 13:00:06;;;;;;;12.45;5.90;;;;;;;;;;5052605;28;20040;-68
2024/01/07 13:02:33;;;;;;;16.88;6.70;;;;;;;;;;5052364;28;20027;-67
2024/01/07 13:04:58;;;;;;;17.35;7.55;;;;;;;;;;5052514;28;20115;-67
2024/01/07 13:07:23;;;;;;;20.13;8.10;;;;;;;;;;5052242;28;20120;-67
2024/01/07 13:09:49;;;;;;;15.38;6.60;;;;;;;;;;5052275;28;20021;-67
2024/01/07 13:12:15;;;;;;;16.23;6.65;;;;;;;;;;5052194;28;20017;-67
2024/01/07 13:14:42;;;;;;;11.23;6.28;;;;;;;;;;5050814;28;20025;-67
2024/01/07 13:17:08;;;;;;;11.93;5.60;;;;;;;;;;5052258;28;20025;-67
2024/01/07 13:19:33;;;;;;;13.57;5.97;;;;;;;;;;5051965;28;20036;-67
2024/01/07 13:22:00;;;;;;;9.55;4.70;;;;;;;;;;5052206;28;20086;-67
2024/01/07 13:24:26;;;;;;;7.97;4.38;;;;;;;;;;5052243;28;20405;-67
2024/01/07 13:26:51;;;;;;;11.20;4.93;;;;;;;;;;5052332;28;20025;-67
2024/01/07 13:29:17;;;;;;;12.30;5.97;;;;;;;;;;5051976;28;20036;-67
2024/01/07 13:31:42;;;;;;;15.82;7.70;;;;;;;;;;5052384;28;20500;-67
2024/01/07 13:34:08;;;;;;;15.63;5.68;;;;;;;;;;5051791;28;20017;-67
2024/01/07 13:36:33;;;;;;;15.40;8.63;;;;;;;;;;5052231;28;20033;-67
2024/01/07 13:38:59;;;;;;;11.90;6.13;;;;;;;;;;5052018;28;20044;-67
2024/01/07 13:41:28;;;;;;;8.15;5.10;;;;;;;;;;5052384;28;20196;-67
2024/01/07 13:43:55;;;;;;;10.48;5.05;;;;;;;;;;5051471;28;20033;-67
2024/01/07 13:46:23;;;;;;;10.27;5.35;;;;;;;;;;5054292;28;20031;-67
2024/01/07 13:48:48;;;;;;;8.18;4.47;;;;;;;;;;5055877;28;20029;-67
2024/01/07 13:51:14;;;;;;;10.35;5.78;;;;;;;;;;5056128;28;20021;-67
2024/01/07 13:53:39;;;;;;;9.55;5.25;;;;;;;;;;5055969;28;20052;-66
2024/01/07 13:56:07;;;;;;;11.60;5.97;;;;;;;;;;5055883;28;20048;-67
2024/01/07 13:58:32;;;;;;;15.32;6.65;;;;;;;;;;5055705;28;20377;-66
2024/01/07 14:00:57;;;;;;;11.52;5.07;;;;;;;;;;5054318;28;20123;-67
2024/01/07 14:03:23;;;;;;;12.43;5.70;;;;;;;;;;5055821;28;20474;-67
2024/01/07 14:05:49;;;;;;;10.00;5.60;;;;;;;;;;5055530;28;20108;-67
2024/01/07 14:08:15;;;;;;;10.48;5.55;;;;;;;;;;5055829;28;20029;-67
2024/01/07 14:10:40;;;;;;;20.77;8.35;;;;;;;;;;5055602;28;20032;-67
2024/01/07 14:13:06;;;;;;;10.63;4.90;;;;;;;;;;5055507;28;20083;-67
2024/01/07 14:15:32;;;;;;;11.73;5.18;;;;;;;;;;5055770;28;20028;-67
2024/01/07 14:17:57;;;;;;;12.90;6.18;;;;;;;;;;5055394;28;20485;-67
2024/01/07 14:20:22;;;;;;;13.50;6.20;;;;;;;;;;5055400;28;20028;-67
2024/01/07 14:22:48;;;;;;;11.25;5.28;;;;;;;;;;5055112;28;20067;-67
2024/01/07 14:25:14;;;;;;;12.57;5.93;;;;;;;;;;5055436;28;20029;-67
2024/01/07 14:27:40;;;;;;;12.55;6.35;;;;;;;;;;5055336;28;20032;-67
2024/01/07 14:30:06;;;;;;;11.93;6.82;;;;;;;;;;5055413;28;20035;-68
2024/01/07 14:32:33;;;;;;;15.63;6.60;;;;;;;;;;5054892;28;20107;-67